createdAt,value
2022-09-15T00:01:22.429Z,4.00
2022-09-15T00:03:51.246Z,4.10
2022-09-15T00:06:20.193Z,3.90
2022-09-15T00:08:48.539Z,4.60
2022-09-15T00:11:22.244Z,3.90
2022-09-15T00:13:52.577Z,3.60
2022-09-15T00:16:23.969Z,3.70
2022-09-15T00:18:52.293Z,4.30
2022-09-15T00:21:26.493Z,3.80
2022-09-15T00:23:55.316Z,4.00
2022-09-15T00:26:26.463Z,3.40
2022-09-15T00:28:57.792Z,3.20
2022-09-15T00:31:27.330Z,3.30
2022-09-15T00:34:02.549Z,3.10
2022-09-15T00:36:31.127Z,3.10
2022-09-15T00:38:59.090Z,4.00
2022-09-15T00:41:27.179Z,3.70
2022-09-15T00:44:02.386Z,3.80
2022-09-15T00:46:36.200Z,4.10
2022-09-15T00:49:16.572Z,4.30
2022-09-15T00:51:50.892Z,3.80
2022-09-15T00:54:26.645Z,4.10
2022-09-15T00:56:59.127Z,4.10
2022-09-15T00:59:30.176Z,4.50
2022-09-15T01:02:11.712Z,4.10
2022-09-15T01:04:39.884Z,4.30
2022-09-15T01:07:12.142Z,4.40
2022-09-15T01:09:51.115Z,4.40
2022-09-15T01:12:19.861Z,4.80
2022-09-15T01:14:47.818Z,5.00
2022-09-15T01:17:55.475Z,4.70
2022-09-15T01:20:55.648Z,4.50
2022-09-15T01:23:45.936Z,4.20
2022-09-15T01:26:48.126Z,3.90
2022-09-15T01:29:46.052Z,4.50
2022-09-15T01:32:55.986Z,3.80
2022-09-15T01:35:56.404Z,3.60
2022-09-15T01:38:42.610Z,3.70
2022-09-15T01:41:25.518Z,3.90
2022-09-15T01:44:13.783Z,4.20
2022-09-15T01:46:50.540Z,3.20
2022-09-15T01:49:26.407Z,3.80
2022-09-15T01:52:17.252Z,3.90
2022-09-15T01:54:49.743Z,4.70
2022-09-15T01:57:24.476Z,4.80
2022-09-15T01:59:56.375Z,4.60
2022-09-15T02:02:34.334Z,4.70
2022-09-15T02:05:09.892Z,4.70
2022-09-15T02:07:47.809Z,5.00
2022-09-15T02:10:33.335Z,4.70
2022-09-15T02:13:19.380Z,3.90
2022-09-15T02:15:54.042Z,4.00
2022-09-15T02:18:40.347Z,3.80
2022-09-15T02:21:19.258Z,4.10
2022-09-15T02:23:51.238Z,4.00
2022-09-15T02:26:25.550Z,3.60
2022-09-15T02:29:21.383Z,3.90
2022-09-15T02:31:56.137Z,3.90
2022-09-15T02:34:31.690Z,3.90
2022-09-15T02:37:10.063Z,4.50
2022-09-15T02:39:44.465Z,3.90
2022-09-15T02:42:27.877Z,3.60
2022-09-15T02:45:03.292Z,4.30
2022-09-15T02:47:41.839Z,4.00
2022-09-15T02:50:10.129Z,3.30
2022-09-15T02:52:54.267Z,4.00
2022-09-15T02:55:23.685Z,4.10
2022-09-15T02:58:10.618Z,4.20
2022-09-15T03:00:55.140Z,4.50
2022-09-15T03:03:24.712Z,4.30
2022-09-15T03:06:15.811Z,4.60
2022-09-15T03:09:00.355Z,4.80
2022-09-15T03:11:30.647Z,4.70
2022-09-15T03:14:09.192Z,3.90
2022-09-15T03:16:40.296Z,4.30
2022-09-15T03:19:29.411Z,3.90
2022-09-15T03:21:58.346Z,3.90
2022-09-15T03:24:26.224Z,3.90
2022-09-15T03:27:01.378Z,3.70
2022-09-15T03:29:31.737Z,4.00
2022-09-15T03:31:59.820Z,3.80
2022-09-15T03:34:58.836Z,4.10
2022-09-15T03:37:59.826Z,3.90
2022-09-15T03:40:27.894Z,4.00
2022-09-15T03:42:55.986Z,3.70
2022-09-15T03:45:24.045Z,3.80
2022-09-15T03:47:52.239Z,2.70
2022-09-15T03:50:20.039Z,4.00
2022-09-15T03:52:48.015Z,3.70
2022-09-15T03:55:15.835Z,3.70
2022-09-15T03:57:43.708Z,4.30
2022-09-15T04:00:12.531Z,4.00
2022-09-15T04:02:40.642Z,4.00
2022-09-15T04:05:09.026Z,4.00
2022-09-15T04:07:36.919Z,4.40
2022-09-15T04:10:05.636Z,3.00
2022-09-15T04:12:34.499Z,2.80
2022-09-15T04:15:04.184Z,4.00
2022-09-15T04:17:32.342Z,3.10
2022-09-15T04:20:00.170Z,4.00
2022-09-15T04:22:31.244Z,1.80
2022-09-15T04:24:59.122Z,2.80
2022-09-15T04:27:27.810Z,2.10
2022-09-15T04:29:55.876Z,2.00
2022-09-15T04:32:24.057Z,3.40
2022-09-15T04:34:53.315Z,3.50
2022-09-15T04:37:22.453Z,3.80
2022-09-15T04:39:50.896Z,3.80
2022-09-15T04:42:20.943Z,2.10
2022-09-15T04:44:48.806Z,2.10
2022-09-15T04:47:17.502Z,2.90
2022-09-15T04:49:45.915Z,2.40
2022-09-15T04:52:14.029Z,3.60
2022-09-15T04:54:42.414Z,4.00
2022-09-15T04:57:11.127Z,3.60
2022-09-15T04:59:39.377Z,4.00
2022-09-15T05:02:07.281Z,3.40
2022-09-15T05:04:35.332Z,3.30
2022-09-15T05:07:03.228Z,4.00
2022-09-15T05:09:31.196Z,4.20
2022-09-15T05:11:59.034Z,3.40
2022-09-15T05:14:27.047Z,2.70
2022-09-15T05:16:55.125Z,2.50
2022-09-15T05:19:23.208Z,2.40
2022-09-15T05:21:51.260Z,3.10
2022-09-15T05:24:19.332Z,3.70
2022-09-15T05:26:47.251Z,2.60
2022-09-15T05:29:15.540Z,2.70
2022-09-15T05:31:43.501Z,2.90
2022-09-15T05:34:11.495Z,5.00
2022-09-15T05:36:39.572Z,2.30
2022-09-15T05:39:07.784Z,4.80
2022-09-15T05:41:35.725Z,5.30
2022-09-15T05:44:03.847Z,5.10
2022-09-15T05:46:31.850Z,6.20
2022-09-15T05:48:59.853Z,5.70
2022-09-15T05:51:27.885Z,6.00
2022-09-15T05:53:56.029Z,5.70
2022-09-15T05:56:23.942Z,5.80
2022-09-15T05:58:52.269Z,5.30
2022-09-15T06:01:24.398Z,5.20
2022-09-15T06:03:53.524Z,5.00
2022-09-15T06:06:22.972Z,4.90
2022-09-15T06:08:58.004Z,4.00
2022-09-15T06:11:31.107Z,4.60
2022-09-15T06:14:03.419Z,4.50
2022-09-15T06:16:34.699Z,3.30
2022-09-15T06:19:03.472Z,2.90
2022-09-15T06:21:36.815Z,3.60
2022-09-15T06:24:07.665Z,3.60
2022-09-15T06:26:37.542Z,4.30
2022-09-15T06:29:08.713Z,2.70
2022-09-15T06:31:38.312Z,3.40
2022-09-15T06:34:10.860Z,3.10
2022-09-15T06:36:40.503Z,3.70
2022-09-15T06:41:00.989Z,2.20
2022-09-15T06:42:27.406Z,2.30
2022-09-15T06:44:55.399Z,3.10
2022-09-15T06:47:23.640Z,2.10
2022-09-15T06:49:53.753Z,2.20
2022-09-15T06:52:22.342Z,1.80
2022-09-15T06:54:50.161Z,2.10
2022-09-15T06:57:18.133Z,2.30
2022-09-15T06:59:46.135Z,1.60
2022-09-15T07:02:14.266Z,2.20
2022-09-15T07:04:45.479Z,2.30
2022-09-15T07:08:11.449Z,2.20
2022-09-15T07:10:46.271Z,2.00
2022-09-15T07:13:45.915Z,2.20
2022-09-15T07:16:20.353Z,3.00
2022-09-15T07:19:19.325Z,3.20
2022-09-15T07:23:02.627Z,3.20
2022-09-15T07:26:20.404Z,3.20
2022-09-15T07:29:37.822Z,2.90
2022-09-15T07:32:15.265Z,2.30
2022-09-15T07:34:58.242Z,2.60
2022-09-15T07:37:37.624Z,2.80
2022-09-15T07:43:09.695Z,2.60
2022-09-15T07:46:28.318Z,2.40
2022-09-15T07:49:44.113Z,2.20
2022-09-15T07:52:25.961Z,1.60
2022-09-15T07:55:52.494Z,1.60
2022-09-15T07:58:56.221Z,1.40
2022-09-15T08:01:57.358Z,1.30
2022-09-15T08:04:39.006Z,1.30
2022-09-15T08:10:15.987Z,1.30
2022-09-15T08:12:44.214Z,1.10
2022-09-15T08:15:18.986Z,1.30
2022-09-15T08:17:54.515Z,1.20
2022-09-15T08:20:27.766Z,1.20
2022-09-15T08:23:07.615Z,1.00
2022-09-15T08:25:47.894Z,1.10
2022-09-15T08:28:16.080Z,0.90
2022-09-15T08:30:47.115Z,1.00
2022-09-15T08:33:16.688Z,0.90
2022-09-15T08:35:45.385Z,0.80
2022-09-15T08:39:37.757Z,0.90
2022-09-15T08:42:19.754Z,1.20
2022-09-15T08:45:40.487Z,0.80
2022-09-15T08:52:28.427Z,0.90
2022-09-15T08:55:52.515Z,1.00
2022-09-15T09:06:58.886Z,1.30
2022-09-15T09:09:58.106Z,0.90
2022-09-15T09:13:38.527Z,1.10
2022-09-15T09:17:05.472Z,1.10
2022-09-15T09:20:36.135Z,1.00
2022-09-15T09:26:24.174Z,1.30
2022-09-15T09:26:45.632Z,1.20
2022-09-15T09:32:17.651Z,1.10
2022-09-15T09:35:05.736Z,1.20
2022-09-15T09:37:47.629Z,0.90
2022-09-15T09:40:28.792Z,1.30
2022-09-15T09:43:01.400Z,1.00
2022-09-15T09:48:30.170Z,0.80
2022-09-15T09:51:36.643Z,0.70
2022-09-15T09:54:16.507Z,1.00
2022-09-15T09:56:45.725Z,0.90
2022-09-15T09:59:46.636Z,1.00
2022-09-15T10:02:21.834Z,0.80
2022-09-15T10:04:59.283Z,0.80
2022-09-15T10:07:36.472Z,0.80
2022-09-15T10:10:23.228Z,0.50
2022-09-15T10:12:57.877Z,0.60
2022-09-15T10:15:36.461Z,0.60
2022-09-15T10:18:07.841Z,1.10
2022-09-15T10:20:50.653Z,1.00
2022-09-15T10:23:41.024Z,0.90
2022-09-15T10:26:23.138Z,0.90
2022-09-15T10:29:15.129Z,0.60
2022-09-15T10:31:45.629Z,0.80
2022-09-15T10:34:31.317Z,1.00
2022-09-15T10:37:37.938Z,0.80
2022-09-15T10:40:34.442Z,0.80
2022-09-15T10:43:40.363Z,0.70
2022-09-15T10:46:24.100Z,0.60
2022-09-15T10:49:29.251Z,0.80
2022-09-15T10:52:16.824Z,0.70
2022-09-15T10:55:24.824Z,0.70
2022-09-15T10:58:34.472Z,0.80
2022-09-15T11:01:31.493Z,0.90
2022-09-15T11:08:13.844Z,1.90
2022-09-15T11:11:12.473Z,1.20
2022-09-15T11:14:01.916Z,2.30
2022-09-15T11:16:56.606Z,0.70
2022-09-15T11:20:12.045Z,0.70
2022-09-15T11:22:51.609Z,1.10
2022-09-15T11:25:27.218Z,0.50
2022-09-15T11:28:05.559Z,0.50
2022-09-15T11:30:48.661Z,0.70
2022-09-15T11:33:52.218Z,0.70
2022-09-15T11:36:29.722Z,1.00
2022-09-15T11:39:20.792Z,0.80
2022-09-15T11:43:18.014Z,0.70
2022-09-15T11:46:01.059Z,0.60
2022-09-15T11:50:10.487Z,1.00
2022-09-15T11:53:13.714Z,0.60
2022-09-15T11:55:52.102Z,0.80
2022-09-15T11:58:51.692Z,0.80
2022-09-15T12:01:56.114Z,0.60
2022-09-15T12:04:33.550Z,0.60
2022-09-15T12:07:24.058Z,0.50
2022-09-15T12:09:53.355Z,0.60
2022-09-15T12:12:27.006Z,0.90
2022-09-15T12:14:58.905Z,0.70
2022-09-15T12:17:52.962Z,0.70
2022-09-15T12:20:33.171Z,0.60
2022-09-15T12:23:19.914Z,0.90
2022-09-15T12:26:15.607Z,0.70
2022-09-15T12:28:54.977Z,1.00
2022-09-15T12:31:29.893Z,0.90
2022-09-15T12:34:13.552Z,0.60
2022-09-15T12:36:45.873Z,0.60
2022-09-15T12:39:26.857Z,0.50
2022-09-15T12:42:14.305Z,0.50
2022-09-15T12:44:49.568Z,1.20
2022-09-15T12:47:50.601Z,1.00
2022-09-15T12:50:32.888Z,0.90
2022-09-15T12:53:27.687Z,0.40
2022-09-15T12:56:09.629Z,0.70
2022-09-15T12:58:40.856Z,0.70
2022-09-15T13:01:36.801Z,0.60
2022-09-15T13:04:44.545Z,0.90
2022-09-15T13:07:33.040Z,0.70
2022-09-15T13:10:20.271Z,0.60
2022-09-15T13:12:55.039Z,0.60
2022-09-15T13:15:26.001Z,0.80
2022-09-15T13:17:57.579Z,0.60
2022-09-15T13:20:37.017Z,0.60
2022-09-15T13:23:11.488Z,0.80
2022-09-15T13:25:46.480Z,0.70
2022-09-15T13:28:20.439Z,0.60
2022-09-15T13:32:44.882Z,0.60
2022-09-15T13:39:35.562Z,1.60
2022-09-15T14:01:01.668Z,0.80
2022-09-15T14:07:21.279Z,0.70
2022-09-15T14:13:48.641Z,0.50
2022-09-15T14:16:36.973Z,0.90
2022-09-15T14:26:18.238Z,0.70
2022-09-15T14:28:55.449Z,0.80
2022-09-15T14:31:28.957Z,0.80
2022-09-15T14:33:57.554Z,0.90
2022-09-15T14:36:31.362Z,0.90
2022-09-15T14:39:20.035Z,1.00
2022-09-15T14:41:50.114Z,1.30
2022-09-15T14:47:22.502Z,0.90
2022-09-15T14:50:08.232Z,1.00
2022-09-15T14:52:40.528Z,0.90
2022-09-15T14:55:18.895Z,0.90
2022-09-15T14:57:55.882Z,1.20
2022-09-15T15:00:28.255Z,0.90
2022-09-15T15:03:31.997Z,1.20
2022-09-15T15:09:14.153Z,1.10
2022-09-15T15:11:44.100Z,1.30
2022-09-15T15:14:13.511Z,1.60
2022-09-15T15:16:52.450Z,1.20
2022-09-15T15:19:35.659Z,0.90
2022-09-15T15:22:20.628Z,1.20
2022-09-15T15:24:53.707Z,1.20
2022-09-15T15:27:41.537Z,0.90
2022-09-15T15:30:33.335Z,1.30
2022-09-15T15:33:05.861Z,1.10
2022-09-15T15:35:35.714Z,1.30
2022-09-15T15:38:14.695Z,1.20
2022-09-15T15:40:45.913Z,1.50
2022-09-15T15:43:23.458Z,1.40
2022-09-15T15:45:57.993Z,1.70
2022-09-15T15:48:27.735Z,1.50
2022-09-15T15:50:56.216Z,1.60
2022-09-15T15:53:24.555Z,1.40
2022-09-15T15:55:55.257Z,1.30
2022-09-15T15:58:24.046Z,1.00
2022-09-15T16:00:57.440Z,1.30
2022-09-15T16:03:32.109Z,1.90
2022-09-15T16:06:01.912Z,1.40
2022-09-15T16:08:33.178Z,1.20
2022-09-15T16:11:02.936Z,2.00
2022-09-15T16:13:31.470Z,1.30
2022-09-15T16:16:01.840Z,1.40
2022-09-15T16:18:29.938Z,1.20
2022-09-15T16:20:58.154Z,1.70
2022-09-15T16:23:25.990Z,1.50
2022-09-15T16:25:59.571Z,1.60
2022-09-15T16:28:28.832Z,1.40
2022-09-15T16:30:57.999Z,1.70
2022-09-15T16:33:26.235Z,1.60
2022-09-15T16:36:03.609Z,1.50
2022-09-15T16:38:32.214Z,1.50
2022-09-15T16:41:02.429Z,1.80
2022-09-15T16:44:11.735Z,1.20
2022-09-15T16:47:41.804Z,1.60
2022-09-15T16:51:01.708Z,1.40
2022-09-15T16:54:20.173Z,1.20
2022-09-15T16:57:10.033Z,1.60
2022-09-15T17:00:57.852Z,1.50
2022-09-15T17:03:48.258Z,1.60
2022-09-15T17:06:22.290Z,1.40
2022-09-15T17:08:52.370Z,1.40
2022-09-15T17:11:24.158Z,2.00
2022-09-15T17:13:52.897Z,1.70
2022-09-15T17:16:20.981Z,1.90
2022-09-15T17:18:49.714Z,1.60
2022-09-15T17:21:20.263Z,1.60
2022-09-15T17:23:50.158Z,1.60
2022-09-15T17:26:23.993Z,2.30
2022-09-15T17:31:24.905Z,1.80
2022-09-15T17:33:53.099Z,1.80
2022-09-15T17:36:21.076Z,1.60
2022-09-15T17:38:49.264Z,1.60
2022-09-15T17:41:20.596Z,2.20
2022-09-15T17:43:49.570Z,2.00
2022-09-15T17:46:17.458Z,1.80
2022-09-15T17:48:45.452Z,1.90
2022-09-15T17:51:17.653Z,2.10
2022-09-15T17:53:47.173Z,1.80
2022-09-15T17:56:15.204Z,1.40
2022-09-15T17:58:44.842Z,2.50
2022-09-15T18:01:15.719Z,1.80
2022-09-15T18:03:45.131Z,2.00
2022-09-15T18:06:13.823Z,2.00
2022-09-15T18:08:41.949Z,1.80
2022-09-15T18:11:13.121Z,1.80
2022-09-15T18:13:41.657Z,2.10
2022-09-15T18:16:13.661Z,2.20
2022-09-15T18:18:42.950Z,2.00
2022-09-15T18:21:27.016Z,2.10
2022-09-15T18:23:56.112Z,2.30
2022-09-15T18:26:26.590Z,1.50
2022-09-15T18:28:55.909Z,1.30
2022-09-15T18:31:24.456Z,1.40
2022-09-15T18:33:52.498Z,1.30
2022-09-15T18:36:20.982Z,1.10
2022-09-15T18:38:48.963Z,1.50
2022-09-15T18:41:20.151Z,1.40
2022-09-15T18:43:49.701Z,1.20
2022-09-15T18:46:18.492Z,1.10
2022-09-15T18:48:46.560Z,1.20
2022-09-15T18:51:23.727Z,1.00
2022-09-15T18:53:57.489Z,1.10
2022-09-15T18:56:25.526Z,0.90
2022-09-15T18:58:54.722Z,0.90
2022-09-15T19:01:22.865Z,1.30
2022-09-15T19:03:51.184Z,0.80
2022-09-15T19:06:19.066Z,1.10
2022-09-15T19:08:47.920Z,1.10
2022-09-15T19:11:16.308Z,1.70
2022-09-15T19:13:44.649Z,1.10
2022-09-15T19:16:13.253Z,1.10
2022-09-15T19:18:41.282Z,1.50
2022-09-15T19:21:11.772Z,1.10
2022-09-15T19:23:39.846Z,1.00
2022-09-15T19:26:13.661Z,1.10
2022-09-15T19:28:44.389Z,1.20
2022-09-15T19:31:12.838Z,1.70
2022-09-15T19:33:41.186Z,1.90
2022-09-15T19:36:28.450Z,1.50
2022-09-15T19:38:59.179Z,1.60
2022-09-15T19:41:27.079Z,2.10
2022-09-15T19:43:55.306Z,1.90
2022-09-15T19:46:25.634Z,2.40
2022-09-15T19:48:54.239Z,3.10
2022-09-15T19:51:22.631Z,3.50
2022-09-15T19:53:55.207Z,3.50
2022-09-15T19:56:26.308Z,2.70
2022-09-15T19:58:56.278Z,1.70
2022-09-15T20:01:26.168Z,2.10
2022-09-15T20:03:57.099Z,1.80
2022-09-15T20:06:30.201Z,1.70
2022-09-15T20:09:00.596Z,2.30
2022-09-15T20:11:32.848Z,2.20
2022-09-15T20:14:02.153Z,1.80
2022-09-15T20:16:32.604Z,2.00
2022-09-15T20:19:03.944Z,2.20
2022-09-15T20:21:51.418Z,2.30
2022-09-15T20:24:22.056Z,2.70
2022-09-15T20:26:50.548Z,2.10
2022-09-15T20:29:19.727Z,2.10
2022-09-15T20:31:48.329Z,2.00
2022-09-15T20:34:18.800Z,2.10
2022-09-15T20:36:47.167Z,1.80
2022-09-15T20:39:19.464Z,1.50
2022-09-15T20:41:47.969Z,1.70
2022-09-15T20:44:16.002Z,1.70
2022-09-15T20:46:44.435Z,1.70
2022-09-15T20:49:13.109Z,2.10
2022-09-15T20:51:41.896Z,2.10
2022-09-15T20:54:10.985Z,1.90
2022-09-15T20:56:39.180Z,2.30
2022-09-15T20:59:10.401Z,2.60
2022-09-15T21:01:39.745Z,3.10
2022-09-15T21:04:09.198Z,3.00
2022-09-15T21:06:38.640Z,2.70
2022-09-15T21:09:09.447Z,2.40
2022-09-15T21:11:39.182Z,2.70
2022-09-15T21:14:08.002Z,2.70
2022-09-15T21:16:36.166Z,2.40
2022-09-15T21:19:04.322Z,2.00
2022-09-15T21:21:34.449Z,2.40
2022-09-15T21:24:06.238Z,2.10
2022-09-15T21:26:58.046Z,2.80
2022-09-15T21:29:28.147Z,2.70
2022-09-15T21:31:56.553Z,2.60
2022-09-15T21:34:26.289Z,2.40
2022-09-15T21:36:54.590Z,3.00
2022-09-15T21:39:23.192Z,2.80
2022-09-15T21:41:51.394Z,2.40
2022-09-15T21:44:19.563Z,2.10
2022-09-15T21:46:48.000Z,2.50
2022-09-15T21:49:18.096Z,2.70
2022-09-15T21:51:46.436Z,2.80
2022-09-15T21:54:15.041Z,2.20
2022-09-15T21:56:42.989Z,2.50
2022-09-15T21:59:11.105Z,3.20
2022-09-15T22:01:40.155Z,3.40
2022-09-15T22:04:11.807Z,3.50
2022-09-15T22:06:41.448Z,3.10
2022-09-15T22:09:14.360Z,3.10
2022-09-15T22:11:42.492Z,3.00
2022-09-15T22:14:11.949Z,2.60
2022-09-15T22:16:41.783Z,2.80
2022-09-15T22:19:11.959Z,3.10
2022-09-15T22:21:42.574Z,2.70
2022-09-15T22:24:14.719Z,3.40
2022-09-15T22:26:43.708Z,2.70
2022-09-15T22:29:11.685Z,2.90
2022-09-15T22:31:39.879Z,2.80
2022-09-15T22:34:07.852Z,2.60
2022-09-15T22:36:36.003Z,2.80
2022-09-15T22:39:06.216Z,2.40
2022-09-15T22:41:38.089Z,2.70
2022-09-15T22:44:07.998Z,2.30
2022-09-15T22:46:36.026Z,2.70
2022-09-15T22:49:03.935Z,2.40
2022-09-15T22:51:31.917Z,2.10
2022-09-15T22:54:03.057Z,2.20
2022-09-15T22:56:31.133Z,1.90
2022-09-15T22:59:00.169Z,1.90
2022-09-15T23:01:30.810Z,2.00
2022-09-15T23:04:01.935Z,2.00
2022-09-15T23:06:33.406Z,2.00
2022-09-15T23:09:05.000Z,1.90
2022-09-15T23:11:33.345Z,2.10
2022-09-15T23:14:03.262Z,2.50
2022-09-15T23:16:31.627Z,2.40
2022-09-15T23:18:59.799Z,2.40
2022-09-15T23:21:28.331Z,1.80
2022-09-15T23:23:57.045Z,2.20
2022-09-15T23:26:26.700Z,2.20
2022-09-15T23:28:55.137Z,2.50
2022-09-15T23:31:23.165Z,2.30
2022-09-15T23:33:51.049Z,2.10
2022-09-15T23:36:19.760Z,2.40
2022-09-15T23:38:49.024Z,1.80
2022-09-15T23:41:18.321Z,1.60
2022-09-15T23:43:47.186Z,2.10
2022-09-15T23:46:17.896Z,1.60
2022-09-15T23:48:45.869Z,1.40
2022-09-15T23:51:14.055Z,1.20
2022-09-15T23:53:42.048Z,1.00
2022-09-15T23:56:10.323Z,0.70
2022-09-15T23:58:38.869Z,1.20
